sensor_id;sensor_type;location;lat;lon;timestamp;P1;durP1;ratioP1;P2;durP2;ratioP2
74100;SDS011;62462;52.530;21.682;2024-01-06T00:00:30;61.25;;;21.25;;
74100;SDS011;62462;52.530;21.682;2024-01-06T00:02:56;36.80;;;13.13;;
74100;SDS011;62462;52.530;21.682;2024-01-06T00:05:21;117.20;;;34.80;;
74100;SDS011;62462;52.530;21.682;2024-01-06T00:07:47;54.05;;;19.23;;
74100;SDS011;62462;52.530;21.682;2024-01-06T00:10:13;72.78;;;23.60;;
74100;SDS011;62462;52.530;21.682;2024-01-06T00:12:38;81.25;;;22.83;;
74100;SDS011;62462;52.530;21.682;2024-01-06T00:15:04;82.65;;;23.92;;
74100;SDS011;62462;52.530;21.682;2024-01-06T00:17:30;163.93;;;39.60;;
74100;SDS011;62462;52.530;21.682;2024-01-06T00:19:56;85.95;;;26.40;;
74100;SDS011;62462;52.530;21.682;2024-01-06T00:22:23;55.30;;;15.52;;
74100;SDS011;62462;52.530;21.682;2024-01-06T00:24:48;143.10;;;36.30;;
74100;SDS011;62462;52.530;21.682;2024-01-06T00:27:14;117.95;;;33.35;;
74100;SDS011;62462;52.530;21.682;2024-01-06T00:29:41;68.38;;;18.38;;
74100;SDS011;62462;52.530;21.682;2024-01-06T00:32:06;31.75;;;11.07;;
74100;SDS011;62462;52.530;21.682;2024-01-06T00:34:32;114.22;;;25.55;;
74100;SDS011;62462;52.530;21.682;2024-01-06T00:36:58;172.18;;;41.30;;
74100;SDS011;62462;52.530;21.682;2024-01-06T00:39:23;213.68;;;50.53;;
74100;SDS011;62462;52.530;21.682;2024-01-06T00:41:49;217.00;;;51.40;;
74100;SDS011;62462;52.530;21.682;2024-01-06T00:44:15;99.13;;;25.60;;
74100;SDS011;62462;52.530;21.682;2024-01-06T00:46:41;170.18;;;40.15;;
74100;SDS011;62462;52.530;21.682;2024-01-06T00:49:07;215.50;;;45.65;;
74100;SDS011;62462;52.530;21.682;2024-01-06T00:51:32;150.60;;;34.67;;
74100;SDS011;62462;52.530;21.682;2024-01-06T00:53:58;69.47;;;19.05;;
74100;SDS011;62462;52.530;21.682;2024-01-06T00:56:24;72.60;;;20.92;;
74100;SDS011;62462;52.530;21.682;2024-01-06T00:58:49;81.35;;;24.55;;
74100;SDS011;62462;52.530;21.682;2024-01-06T01:01:15;111.65;;;29.27;;
74100;SDS011;62462;52.530;21.682;2024-01-06T01:03:41;100.97;;;26.63;;
74100;SDS011;62462;52.530;21.682;2024-01-06T01:06:06;269.30;;;67.07;;
74100;SDS011;62462;52.530;21.682;2024-01-06T01:08:33;122.85;;;29.35;;
74100;SDS011;62462;52.530;21.682;2024-01-06T01:10:59;135.65;;;32.85;;
74100;SDS011;62462;52.530;21.682;2024-01-06T01:13:24;107.60;;;32.20;;
74100;SDS011;62462;52.530;21.682;2024-01-06T01:15:51;41.30;;;13.98;;
74100;SDS011;62462;52.530;21.682;2024-01-06T01:18:16;52.90;;;16.40;;
74100;SDS011;62462;52.530;21.682;2024-01-06T01:20:42;179.07;;;51.72;;
74100;SDS011;62462;52.530;21.682;2024-01-06T01:23:08;64.68;;;21.67;;
74100;SDS011;62462;52.530;21.682;2024-01-06T01:25:34;31.10;;;11.63;;
74100;SDS011;62462;52.530;21.682;2024-01-06T01:27:59;20.65;;;8.82;;
74100;SDS011;62462;52.530;21.682;2024-01-06T01:30:25;27.10;;;10.73;;
74100;SDS011;62462;52.530;21.682;2024-01-06T01:32:50;32.35;;;11.52;;
74100;SDS011;62462;52.530;21.682;2024-01-06T01:35:16;39.25;;;14.93;;
74100;SDS011;62462;52.530;21.682;2024-01-06T01:37:42;30.75;;;12.43;;
74100;SDS011;62462;52.530;21.682;2024-01-06T01:40:08;32.22;;;12.32;;
74100;SDS011;62462;52.530;21.682;2024-01-06T01:42:34;34.63;;;12.85;;
74100;SDS011;62462;52.530;21.682;2024-01-06T01:44:59;24.10;;;10.40;;
74100;SDS011;62462;52.530;21.682;2024-01-06T01:47:25;21.63;;;9.30;;
74100;SDS011;62462;52.530;21.682;2024-01-06T01:49:52;19.55;;;8.32;;
74100;SDS011;62462;52.530;21.682;2024-01-06T01:52:19;18.80;;;9.07;;
74100;SDS011;62462;52.530;21.682;2024-01-06T01:54:45;25.63;;;11.20;;
74100;SDS011;62462;52.530;21.682;2024-01-06T01:57:12;40.25;;;14.63;;
74100;SDS011;62462;52.530;21.682;2024-01-06T01:59:39;20.73;;;9.68;;
74100;SDS011;62462;52.530;21.682;2024-01-06T02:02:05;15.73;;;7.78;;
74100;SDS011;62462;52.530;21.682;2024-01-06T02:04:32;27.33;;;11.07;;
74100;SDS011;62462;52.530;21.682;2024-01-06T02:06:58;18.85;;;8.18;;
74100;SDS011;62462;52.530;21.682;2024-01-06T02:09:23;27.15;;;12.32;;
74100;SDS011;62462;52.530;21.682;2024-01-06T02:11:54;22.27;;;9.93;;
74100;SDS011;62462;52.530;21.682;2024-01-06T02:14:25;26.77;;;10.88;;
74100;SDS011;62462;52.530;21.682;2024-01-06T02:16:51;23.83;;;9.95;;
74100;SDS011;62462;52.530;21.682;2024-01-06T02:19:17;26.10;;;9.80;;
74100;SDS011;62462;52.530;21.682;2024-01-06T02:21:44;77.38;;;24.13;;
74100;SDS011;62462;52.530;21.682;2024-01-06T02:24:13;39.15;;;15.02;;
74100;SDS011;62462;52.530;21.682;2024-01-06T02:26:39;69.25;;;24.38;;
74100;SDS011;62462;52.530;21.682;2024-01-06T02:29:04;35.97;;;11.43;;
74100;SDS011;62462;52.530;21.682;2024-01-06T02:31:30;20.40;;;8.00;;
74100;SDS011;62462;52.530;21.682;2024-01-06T02:33:56;41.75;;;14.13;;
74100;SDS011;62462;52.530;21.682;2024-01-06T02:36:21;53.88;;;17.20;;
74100;SDS011;62462;52.530;21.682;2024-01-06T02:38:47;42.47;;;14.40;;
74100;SDS011;62462;52.530;21.682;2024-01-06T02:41:13;57.15;;;18.15;;
74100;SDS011;62462;52.530;21.682;2024-01-06T02:43:38;17.42;;;7.13;;
74100;SDS011;62462;52.530;21.682;2024-01-06T02:46:04;21.27;;;8.48;;
74100;SDS011;62462;52.530;21.682;2024-01-06T02:48:29;13.93;;;5.72;;
74100;SDS011;62462;52.530;21.682;2024-01-06T02:50:55;13.88;;;5.53;;
74100;SDS011;62462;52.530;21.682;2024-01-06T02:53:21;20.83;;;7.85;;
74100;SDS011;62462;52.530;21.682;2024-01-06T02:55:47;22.65;;;9.45;;
74100;SDS011;62462;52.530;21.682;2024-01-06T02:58:13;16.85;;;6.72;;
74100;SDS011;62462;52.530;21.682;2024-01-06T03:00:38;20.25;;;8.02;;
74100;SDS011;62462;52.530;21.682;2024-01-06T03:03:04;17.65;;;7.10;;
74100;SDS011;62462;52.530;21.682;2024-01-06T03:05:30;18.42;;;7.40;;
74100;SDS011;62462;52.530;21.682;2024-01-06T03:07:56;12.68;;;5.93;;
74100;SDS011;62462;52.530;21.682;2024-01-06T03:10:22;15.75;;;6.53;;
74100;SDS011;62462;52.530;21.682;2024-01-06T03:12:48;34.70;;;13.82;;
74100;SDS011;62462;52.530;21.682;2024-01-06T03:15:13;16.27;;;8.00;;
74100;SDS011;62462;52.530;21.682;2024-01-06T03:17:39;17.05;;;7.28;;
74100;SDS011;62462;52.530;21.682;2024-01-06T03:20:05;16.92;;;7.68;;
74100;SDS011;62462;52.530;21.682;2024-01-06T03:22:32;17.73;;;7.15;;
74100;SDS011;62462;52.530;21.682;2024-01-06T03:24:58;42.67;;;16.65;;
74100;SDS011;62462;52.530;21.682;2024-01-06T03:27:23;33.03;;;12.35;;
74100;SDS011;62462;52.530;21.682;2024-01-06T03:29:49;14.93;;;7.13;;
74100;SDS011;62462;52.530;21.682;2024-01-06T03:32:15;11.90;;;6.22;;
74100;SDS011;62462;52.530;21.682;2024-01-06T03:34:41;16.08;;;7.18;;
74100;SDS011;62462;52.530;21.682;2024-01-06T03:37:08;15.00;;;7.30;;
74100;SDS011;62462;52.530;21.682;2024-01-06T03:39:33;31.63;;;13.57;;
74100;SDS011;62462;52.530;21.682;2024-01-06T03:41:59;54.42;;;21.67;;
74100;SDS011;62462;52.530;21.682;2024-01-06T03:44:25;32.63;;;13.57;;
74100;SDS011;62462;52.530;21.682;2024-01-06T03:46:55;19.67;;;9.13;;
74100;SDS011;62462;52.530;21.682;2024-01-06T03:49:22;14.43;;;7.43;;
74100;SDS011;62462;52.530;21.682;2024-01-06T03:51:49;16.60;;;7.75;;
74100;SDS011;62462;52.530;21.682;2024-01-06T03:54:14;22.23;;;10.18;;
74100;SDS011;62462;52.530;21.682;2024-01-06T03:56:40;16.20;;;6.82;;
74100;SDS011;62462;52.530;21.682;2024-01-06T03:59:06;15.45;;;7.03;;
74100;SDS011;62462;52.530;21.682;2024-01-06T04:01:32;12.77;;;6.78;;
74100;SDS011;62462;52.530;21.682;2024-01-06T04:04:01;16.45;;;7.63;;
74100;SDS011;62462;52.530;21.682;2024-01-06T04:06:30;15.43;;;7.20;;
74100;SDS011;62462;52.530;21.682;2024-01-06T04:08:59;14.40;;;7.35;;
74100;SDS011;62462;52.530;21.682;2024-01-06T04:11:25;14.07;;;8.00;;
74100;SDS011;62462;52.530;21.682;2024-01-06T04:13:51;15.25;;;7.32;;
74100;SDS011;62462;52.530;21.682;2024-01-06T04:16:17;16.38;;;8.13;;
74100;SDS011;62462;52.530;21.682;2024-01-06T04:18:43;17.45;;;8.60;;
74100;SDS011;62462;52.530;21.682;2024-01-06T04:21:08;16.30;;;7.75;;
74100;SDS011;62462;52.530;21.682;2024-01-06T04:23:36;16.30;;;6.88;;
74100;SDS011;62462;52.530;21.682;2024-01-06T04:26:01;16.90;;;6.97;;
74100;SDS011;62462;52.530;21.682;2024-01-06T04:28:29;13.50;;;7.30;;
74100;SDS011;62462;52.530;21.682;2024-01-06T04:30:55;13.25;;;6.88;;
74100;SDS011;62462;52.530;21.682;2024-01-06T04:33:21;12.98;;;6.40;;
74100;SDS011;62462;52.530;21.682;2024-01-06T04:35:46;13.05;;;6.20;;
74100;SDS011;62462;52.530;21.682;2024-01-06T04:38:12;14.52;;;6.43;;
74100;SDS011;62462;52.530;21.682;2024-01-06T04:40:38;14.50;;;7.32;;
74100;SDS011;62462;52.530;21.682;2024-01-06T04:43:03;13.77;;;7.03;;
74100;SDS011;62462;52.530;21.682;2024-01-06T04:45:29;15.88;;;7.40;;
74100;SDS011;62462;52.530;21.682;2024-01-06T04:47:55;11.30;;;6.30;;
74100;SDS011;62462;52.530;21.682;2024-01-06T04:50:20;13.48;;;6.25;;
74100;SDS011;62462;52.530;21.682;2024-01-06T04:52:46;13.45;;;6.75;;
74100;SDS011;62462;52.530;21.682;2024-01-06T04:55:13;14.85;;;7.07;;
74100;SDS011;62462;52.530;21.682;2024-01-06T04:57:39;11.70;;;6.38;;
74100;SDS011;62462;52.530;21.682;2024-01-06T05:00:04;12.65;;;6.28;;
74100;SDS011;62462;52.530;21.682;2024-01-06T05:02:31;11.68;;;6.00;;
74100;SDS011;62462;52.530;21.682;2024-01-06T05:04:56;10.18;;;5.78;;
74100;SDS011;62462;52.530;21.682;2024-01-06T05:07:22;12.45;;;5.63;;
74100;SDS011;62462;52.530;21.682;2024-01-06T05:09:48;11.10;;;6.00;;
74100;SDS011;62462;52.530;21.682;2024-01-06T05:12:13;9.63;;;5.50;;
74100;SDS011;62462;52.530;21.682;2024-01-06T05:14:39;10.50;;;6.15;;
74100;SDS011;62462;52.530;21.682;2024-01-06T05:17:05;11.45;;;6.40;;
74100;SDS011;62462;52.530;21.682;2024-01-06T05:19:30;12.45;;;6.72;;
74100;SDS011;62462;52.530;21.682;2024-01-06T05:21:56;11.93;;;6.22;;
74100;SDS011;62462;52.530;21.682;2024-01-06T05:24:22;10.00;;;5.38;;
74100;SDS011;62462;52.530;21.682;2024-01-06T05:26:48;11.27;;;6.35;;
74100;SDS011;62462;52.530;21.682;2024-01-06T05:29:14;11.88;;;5.68;;
74100;SDS011;62462;52.530;21.682;2024-01-06T05:31:40;9.30;;;4.80;;
74100;SDS011;62462;52.530;21.682;2024-01-06T05:34:06;10.93;;;5.70;;
74100;SDS011;62462;52.530;21.682;2024-01-06T05:36:31;10.85;;;5.40;;
74100;SDS011;62462;52.530;21.682;2024-01-06T05:38:57;8.45;;;4.57;;
74100;SDS011;62462;52.530;21.682;2024-01-06T05:41:25;11.27;;;5.68;;
74100;SDS011;62462;52.530;21.682;2024-01-06T05:43:51;9.50;;;5.32;;
74100;SDS011;62462;52.530;21.682;2024-01-06T05:46:26;8.82;;;4.93;;
74100;SDS011;62462;52.530;21.682;2024-01-06T05:48:51;12.18;;;4.75;;
74100;SDS011;62462;52.530;21.682;2024-01-06T05:51:17;10.10;;;5.30;;
74100;SDS011;62462;52.530;21.682;2024-01-06T05:53:43;59.53;;;16.17;;
74100;SDS011;62462;52.530;21.682;2024-01-06T05:56:09;48.50;;;14.70;;
74100;SDS011;62462;52.530;21.682;2024-01-06T05:58:34;32.88;;;10.35;;
74100;SDS011;62462;52.530;21.682;2024-01-06T06:01:00;24.23;;;8.35;;
74100;SDS011;62462;52.530;21.682;2024-01-06T06:03:26;57.65;;;17.05;;
74100;SDS011;62462;52.530;21.682;2024-01-06T06:05:52;28.98;;;11.05;;
74100;SDS011;62462;52.530;21.682;2024-01-06T06:08:18;40.10;;;12.30;;
74100;SDS011;62462;52.530;21.682;2024-01-06T06:10:43;37.17;;;11.57;;
74100;SDS011;62462;52.530;21.682;2024-01-06T06:13:26;35.65;;;12.23;;
74100;SDS011;62462;52.530;21.682;2024-01-06T06:15:53;37.05;;;11.73;;
74100;SDS011;62462;52.530;21.682;2024-01-06T06:18:19;36.05;;;10.60;;
74100;SDS011;62462;52.530;21.682;2024-01-06T06:20:45;54.28;;;14.65;;
74100;SDS011;62462;52.530;21.682;2024-01-06T06:23:12;56.28;;;14.52;;
74100;SDS011;62462;52.530;21.682;2024-01-06T06:25:38;45.55;;;14.63;;
74100;SDS011;62462;52.530;21.682;2024-01-06T06:28:04;44.17;;;13.43;;
74100;SDS011;62462;52.530;21.682;2024-01-06T06:30:30;28.63;;;8.85;;
74100;SDS011;62462;52.530;21.682;2024-01-06T06:32:56;37.35;;;10.85;;
74100;SDS011;62462;52.530;21.682;2024-01-06T06:35:22;18.75;;;8.70;;
74100;SDS011;62462;52.530;21.682;2024-01-06T06:37:49;24.73;;;10.02;;
74100;SDS011;62462;52.530;21.682;2024-01-06T06:40:15;10.82;;;6.10;;
74100;SDS011;62462;52.530;21.682;2024-01-06T06:42:41;13.75;;;6.70;;
74100;SDS011;62462;52.530;21.682;2024-01-06T06:45:07;17.02;;;7.65;;
74100;SDS011;62462;52.530;21.682;2024-01-06T06:47:33;11.65;;;6.57;;
74100;SDS011;62462;52.530;21.682;2024-01-06T06:49:58;10.35;;;5.80;;
74100;SDS011;62462;52.530;21.682;2024-01-06T06:52:25;9.35;;;5.20;;
74100;SDS011;62462;52.530;21.682;2024-01-06T06:54:50;11.05;;;5.63;;
74100;SDS011;62462;52.530;21.682;2024-01-06T06:57:17;10.05;;;5.05;;
74100;SDS011;62462;52.530;21.682;2024-01-06T06:59:44;11.20;;;5.68;;
74100;SDS011;62462;52.530;21.682;2024-01-06T07:02:10;10.27;;;5.28;;
74100;SDS011;62462;52.530;21.682;2024-01-06T07:04:35;9.02;;;5.15;;
74100;SDS011;62462;52.530;21.682;2024-01-06T07:07:01;9.65;;;5.50;;
74100;SDS011;62462;52.530;21.682;2024-01-06T07:09:27;10.32;;;5.68;;
74100;SDS011;62462;52.530;21.682;2024-01-06T07:11:53;10.20;;;4.75;;
74100;SDS011;62462;52.530;21.682;2024-01-06T07:14:19;12.45;;;5.78;;
74100;SDS011;62462;52.530;21.682;2024-01-06T07:16:44;12.23;;;5.50;;
74100;SDS011;62462;52.530;21.682;2024-01-06T07:19:10;12.05;;;6.13;;
74100;SDS011;62462;52.530;21.682;2024-01-06T07:21:36;8.70;;;4.67;;
74100;SDS011;62462;52.530;21.682;2024-01-06T07:24:02;10.32;;;5.30;;
74100;SDS011;62462;52.530;21.682;2024-01-06T07:26:28;11.80;;;4.75;;
74100;SDS011;62462;52.530;21.682;2024-01-06T07:28:54;9.98;;;4.45;;
74100;SDS011;62462;52.530;21.682;2024-01-06T07:31:20;8.55;;;4.38;;
74100;SDS011;62462;52.530;21.682;2024-01-06T07:33:46;10.05;;;4.75;;
74100;SDS011;62462;52.530;21.682;2024-01-06T07:36:11;7.13;;;4.43;;
74100;SDS011;62462;52.530;21.682;2024-01-06T07:38:37;15.05;;;5.68;;
74100;SDS011;62462;52.530;21.682;2024-01-06T07:41:03;14.10;;;6.03;;
74100;SDS011;62462;52.530;21.682;2024-01-06T07:43:31;10.48;;;5.70;;
74100;SDS011;62462;52.530;21.682;2024-01-06T07:45:57;13.50;;;6.28;;
74100;SDS011;62462;52.530;21.682;2024-01-06T07:48:24;12.63;;;6.80;;
74100;SDS011;62462;52.530;21.682;2024-01-06T07:50:50;15.65;;;8.75;;
74100;SDS011;62462;52.530;21.682;2024-01-06T07:53:15;15.70;;;7.97;;
74100;SDS011;62462;52.530;21.682;2024-01-06T07:55:42;12.98;;;5.88;;
74100;SDS011;62462;52.530;21.682;2024-01-06T07:58:07;13.80;;;6.95;;
74100;SDS011;62462;52.530;21.682;2024-01-06T08:00:33;11.27;;;5.68;;
74100;SDS011;62462;52.530;21.682;2024-01-06T08:02:59;10.90;;;5.45;;
74100;SDS011;62462;52.530;21.682;2024-01-06T08:05:25;11.10;;;5.82;;
74100;SDS011;62462;52.530;21.682;2024-01-06T08:07:51;11.73;;;6.30;;
74100;SDS011;62462;52.530;21.682;2024-01-06T08:10:17;15.30;;;7.30;;
74100;SDS011;62462;52.530;21.682;2024-01-06T08:12:43;12.38;;;5.95;;
74100;SDS011;62462;52.530;21.682;2024-01-06T08:15:09;11.98;;;5.95;;
74100;SDS011;62462;52.530;21.682;2024-01-06T08:17:35;10.73;;;6.03;;
74100;SDS011;62462;52.530;21.682;2024-01-06T08:20:01;11.85;;;6.15;;
74100;SDS011;62462;52.530;21.682;2024-01-06T08:22:28;18.02;;;7.82;;
74100;SDS011;62462;52.530;21.682;2024-01-06T08:24:54;18.50;;;8.20;;
74100;SDS011;62462;52.530;21.682;2024-01-06T08:27:19;13.02;;;6.30;;
74100;SDS011;62462;52.530;21.682;2024-01-06T08:29:46;11.43;;;5.75;;
74100;SDS011;62462;52.530;21.682;2024-01-06T08:32:12;13.70;;;7.18;;
74100;SDS011;62462;52.530;21.682;2024-01-06T08:34:39;11.45;;;6.03;;
74100;SDS011;62462;52.530;21.682;2024-01-06T08:37:05;14.82;;;6.47;;
74100;SDS011;62462;52.530;21.682;2024-01-06T08:39:31;12.68;;;6.70;;
74100;SDS011;62462;52.530;21.682;2024-01-06T08:41:57;13.90;;;6.40;;
74100;SDS011;62462;52.530;21.682;2024-01-06T08:44:23;11.57;;;5.63;;
74100;SDS011;62462;52.530;21.682;2024-01-06T08:46:49;11.95;;;5.68;;
74100;SDS011;62462;52.530;21.682;2024-01-06T08:49:15;42.50;;;12.50;;
74100;SDS011;62462;52.530;21.682;2024-01-06T08:51:41;12.60;;;5.85;;
74100;SDS011;62462;52.530;21.682;2024-01-06T08:54:07;15.00;;;6.85;;
74100;SDS011;62462;52.530;21.682;2024-01-06T08:56:33;14.27;;;6.93;;
74100;SDS011;62462;52.530;21.682;2024-01-06T08:58:59;13.85;;;6.15;;
74100;SDS011;62462;52.530;21.682;2024-01-06T09:01:25;13.95;;;6.60;;
74100;SDS011;62462;52.530;21.682;2024-01-06T09:03:51;13.70;;;6.80;;
74100;SDS011;62462;52.530;21.682;2024-01-06T09:06:16;13.02;;;6.28;;
74100;SDS011;62462;52.530;21.682;2024-01-06T09:08:42;14.18;;;6.75;;
74100;SDS011;62462;52.530;21.682;2024-01-06T09:11:08;12.30;;;5.80;;
74100;SDS011;62462;52.530;21.682;2024-01-06T09:13:33;9.90;;;5.75;;
74100;SDS011;62462;52.530;21.682;2024-01-06T09:15:59;11.40;;;5.88;;
74100;SDS011;62462;52.530;21.682;2024-01-06T09:18:28;11.13;;;5.40;;
74100;SDS011;62462;52.530;21.682;2024-01-06T09:20:54;14.70;;;6.10;;
74100;SDS011;62462;52.530;21.682;2024-01-06T09:23:19;15.07;;;6.57;;
74100;SDS011;62462;52.530;21.682;2024-01-06T09:25:46;12.68;;;6.82;;
74100;SDS011;62462;52.530;21.682;2024-01-06T09:28:15;11.63;;;5.90;;
74100;SDS011;62462;52.530;21.682;2024-01-06T09:30:40;13.30;;;5.80;;
74100;SDS011;62462;52.530;21.682;2024-01-06T09:33:06;14.38;;;6.82;;
74100;SDS011;62462;52.530;21.682;2024-01-06T09:35:34;13.00;;;6.03;;
74100;SDS011;62462;52.530;21.682;2024-01-06T09:38:00;15.32;;;6.55;;
74100;SDS011;62462;52.530;21.682;2024-01-06T09:40:25;15.30;;;7.05;;
74100;SDS011;62462;52.530;21.682;2024-01-06T09:42:52;14.82;;;6.95;;
74100;SDS011;62462;52.530;21.682;2024-01-06T09:45:21;15.07;;;7.30;;
74100;SDS011;62462;52.530;21.682;2024-01-06T09:47:50;11.65;;;6.15;;
74100;SDS011;62462;52.530;21.682;2024-01-06T09:50:20;14.35;;;7.22;;
74100;SDS011;62462;52.530;21.682;2024-01-06T09:52:46;13.63;;;6.70;;
74100;SDS011;62462;52.530;21.682;2024-01-06T09:55:30;13.85;;;6.60;;
74100;SDS011;62462;52.530;21.682;2024-01-06T09:57:56;13.00;;;6.22;;
74100;SDS011;62462;52.530;21.682;2024-01-06T10:00:22;13.07;;;6.15;;
74100;SDS011;62462;52.530;21.682;2024-01-06T10:02:48;12.10;;;5.90;;
74100;SDS011;62462;52.530;21.682;2024-01-06T10:05:18;16.23;;;7.00;;
74100;SDS011;62462;52.530;21.682;2024-01-06T10:07:47;19.98;;;7.57;;
74100;SDS011;62462;52.530;21.682;2024-01-06T10:10:13;14.75;;;7.38;;
74100;SDS011;62462;52.530;21.682;2024-01-06T10:12:40;17.90;;;6.70;;
74100;SDS011;62462;52.530;21.682;2024-01-06T10:15:07;12.15;;;5.97;;
74100;SDS011;62462;52.530;21.682;2024-01-06T10:17:37;12.13;;;5.47;;
74100;SDS011;62462;52.530;21.682;2024-01-06T10:20:09;13.48;;;5.88;;
74100;SDS011;62462;52.530;21.682;2024-01-06T10:22:37;17.98;;;8.35;;
74100;SDS011;62462;52.530;21.682;2024-01-06T10:25:06;23.58;;;9.23;;
74100;SDS011;62462;52.530;21.682;2024-01-06T10:27:37;18.95;;;8.70;;
74100;SDS011;62462;52.530;21.682;2024-01-06T10:30:03;13.70;;;6.90;;
74100;SDS011;62462;52.530;21.682;2024-01-06T10:32:33;11.77;;;5.85;;
74100;SDS011;62462;52.530;21.682;2024-01-06T10:35:00;12.70;;;6.18;;
74100;SDS011;62462;52.530;21.682;2024-01-06T10:37:29;11.75;;;5.63;;
74100;SDS011;62462;52.530;21.682;2024-01-06T10:40:14;10.45;;;5.60;;
74100;SDS011;62462;52.530;21.682;2024-01-06T10:42:44;10.75;;;5.50;;
74100;SDS011;62462;52.530;21.682;2024-01-06T10:45:11;9.77;;;5.72;;
74100;SDS011;62462;52.530;21.682;2024-01-06T10:47:39;12.57;;;6.28;;
74100;SDS011;62462;52.530;21.682;2024-01-06T10:50:08;12.15;;;5.70;;
74100;SDS011;62462;52.530;21.682;2024-01-06T10:52:34;12.00;;;5.55;;
74100;SDS011;62462;52.530;21.682;2024-01-06T10:55:01;12.43;;;6.15;;
74100;SDS011;62462;52.530;21.682;2024-01-06T10:57:28;12.50;;;6.18;;
74100;SDS011;62462;52.530;21.682;2024-01-06T10:59:57;12.95;;;5.60;;
74100;SDS011;62462;52.530;21.682;2024-01-06T11:02:24;11.88;;;5.85;;
74100;SDS011;62462;52.530;21.682;2024-01-06T11:04:51;11.93;;;5.90;;
74100;SDS011;62462;52.530;21.682;2024-01-06T11:07:20;12.52;;;5.82;;
74100;SDS011;62462;52.530;21.682;2024-01-06T11:09:57;11.95;;;6.00;;
74100;SDS011;62462;52.530;21.682;2024-01-06T11:12:23;11.23;;;5.47;;
74100;SDS011;62462;52.530;21.682;2024-01-06T11:14:51;12.00;;;5.95;;
74100;SDS011;62462;52.530;21.682;2024-01-06T11:20:23;10.07;;;5.47;;
74100;SDS011;62462;52.530;21.682;2024-01-06T11:22:52;11.18;;;5.45;;
74100;SDS011;62462;52.530;21.682;2024-01-06T11:25:19;11.60;;;5.88;;
74100;SDS011;62462;52.530;21.682;2024-01-06T11:27:46;12.82;;;5.75;;
74100;SDS011;62462;52.530;21.682;2024-01-06T11:30:24;12.77;;;6.28;;
74100;SDS011;62462;52.530;21.682;2024-01-06T11:32:55;10.77;;;5.25;;
74100;SDS011;62462;52.530;21.682;2024-01-06T11:35:25;11.20;;;5.45;;
74100;SDS011;62462;52.530;21.682;2024-01-06T11:37:55;10.02;;;5.57;;
74100;SDS011;62462;52.530;21.682;2024-01-06T11:40:35;11.45;;;5.50;;
74100;SDS011;62462;52.530;21.682;2024-01-06T11:43:08;14.90;;;5.93;;
74100;SDS011;62462;52.530;21.682;2024-01-06T11:45:37;12.48;;;5.22;;
74100;SDS011;62462;52.530;21.682;2024-01-06T11:48:06;11.63;;;5.15;;
74100;SDS011;62462;52.530;21.682;2024-01-06T11:50:34;8.95;;;4.65;;
74100;SDS011;62462;52.530;21.682;2024-01-06T11:53:01;11.65;;;5.38;;
74100;SDS011;62462;52.530;21.682;2024-01-06T11:55:28;12.23;;;5.70;;
74100;SDS011;62462;52.530;21.682;2024-01-06T11:57:56;12.52;;;5.40;;
74100;SDS011;62462;52.530;21.682;2024-01-06T12:00:26;9.95;;;4.57;;
74100;SDS011;62462;52.530;21.682;2024-01-06T12:02:59;11.18;;;5.32;;
74100;SDS011;62462;52.530;21.682;2024-01-06T12:05:28;12.98;;;5.78;;
74100;SDS011;62462;52.530;21.682;2024-01-06T12:08:01;12.23;;;5.55;;
74100;SDS011;62462;52.530;21.682;2024-01-06T12:10:31;11.05;;;5.43;;
74100;SDS011;62462;52.530;21.682;2024-01-06T12:12:59;9.52;;;4.25;;
74100;SDS011;62462;52.530;21.682;2024-01-06T12:15:29;8.55;;;4.00;;
74100;SDS011;62462;52.530;21.682;2024-01-06T12:17:56;13.07;;;4.65;;
74100;SDS011;62462;52.530;21.682;2024-01-06T12:20:22;7.85;;;4.00;;
74100;SDS011;62462;52.530;21.682;2024-01-06T12:22:50;212.68;;;55.55;;
74100;SDS011;62462;52.530;21.682;2024-01-06T12:25:16;627.97;;;159.18;;
74100;SDS011;62462;52.530;21.682;2024-01-06T12:27:43;450.10;;;120.75;;
74100;SDS011;62462;52.530;21.682;2024-01-06T12:30:16;372.50;;;122.32;;
74100;SDS011;62462;52.530;21.682;2024-01-06T12:32:45;280.00;;;86.43;;
74100;SDS011;62462;52.530;21.682;2024-01-06T12:35:12;338.05;;;109.82;;
74100;SDS011;62462;52.530;21.682;2024-01-06T12:37:39;48.60;;;19.23;;
74100;SDS011;62462;52.530;21.682;2024-01-06T12:40:08;88.18;;;33.53;;
74100;SDS011;62462;52.530;21.682;2024-01-06T12:42:34;62.22;;;24.23;;
74100;SDS011;62462;52.530;21.682;2024-01-06T12:45:01;77.18;;;26.88;;
74100;SDS011;62462;52.530;21.682;2024-01-06T12:47:27;178.88;;;59.10;;
74100;SDS011;62462;52.530;21.682;2024-01-06T12:49:53;264.50;;;87.45;;
74100;SDS011;62462;52.530;21.682;2024-01-06T12:52:18;70.75;;;24.38;;
74100;SDS011;62462;52.530;21.682;2024-01-06T12:54:44;436.02;;;143.13;;
74100;SDS011;62462;52.530;21.682;2024-01-06T12:57:10;197.98;;;62.67;;
74100;SDS011;62462;52.530;21.682;2024-01-06T12:59:36;125.40;;;40.95;;
74100;SDS011;62462;52.530;21.682;2024-01-06T13:02:02;133.70;;;43.72;;
74100;SDS011;62462;52.530;21.682;2024-01-06T13:04:28;60.53;;;21.88;;
74100;SDS011;62462;52.530;21.682;2024-01-06T13:06:53;297.50;;;92.63;;
74100;SDS011;62462;52.530;21.682;2024-01-06T13:09:19;141.10;;;47.38;;
74100;SDS011;62462;52.530;21.682;2024-01-06T13:11:48;52.90;;;15.65;;
74100;SDS011;62462;52.530;21.682;2024-01-06T13:14:15;69.70;;;22.33;;
74100;SDS011;62462;52.530;21.682;2024-01-06T13:16:41;17.27;;;6.80;;
74100;SDS011;62462;52.530;21.682;2024-01-06T13:19:07;81.07;;;24.13;;
74100;SDS011;62462;52.530;21.682;2024-01-06T13:21:33;74.90;;;22.55;;
74100;SDS011;62462;52.530;21.682;2024-01-06T13:24:00;23.25;;;6.78;;
74100;SDS011;62462;52.530;21.682;2024-01-06T13:26:27;51.42;;;16.23;;
74100;SDS011;62462;52.530;21.682;2024-01-06T13:28:53;88.05;;;26.17;;
74100;SDS011;62462;52.530;21.682;2024-01-06T13:31:19;162.07;;;43.80;;
74100;SDS011;62462;52.530;21.682;2024-01-06T13:33:45;92.22;;;23.58;;
74100;SDS011;62462;52.530;21.682;2024-01-06T13:36:11;179.75;;;42.40;;
74100;SDS011;62462;52.530;21.682;2024-01-06T13:38:37;206.25;;;50.53;;
74100;SDS011;62462;52.530;21.682;2024-01-06T13:41:04;143.48;;;36.30;;
74100;SDS011;62462;52.530;21.682;2024-01-06T13:43:30;176.52;;;44.35;;
74100;SDS011;62462;52.530;21.682;2024-01-06T13:45:57;71.75;;;19.50;;
74100;SDS011;62462;52.530;21.682;2024-01-06T13:48:22;100.85;;;24.50;;
74100;SDS011;62462;52.530;21.682;2024-01-06T13:50:48;71.00;;;19.95;;
74100;SDS011;62462;52.530;21.682;2024-01-06T13:53:15;45.38;;;13.75;;
74100;SDS011;62462;52.530;21.682;2024-01-06T13:55:41;66.70;;;18.40;;
74100;SDS011;62462;52.530;21.682;2024-01-06T13:58:07;165.63;;;40.00;;
74100;SDS011;62462;52.530;21.682;2024-01-06T14:00:34;87.90;;;22.85;;
74100;SDS011;62462;52.530;21.682;2024-01-06T14:03:01;110.35;;;28.85;;
74100;SDS011;62462;52.530;21.682;2024-01-06T14:05:29;86.07;;;22.95;;
74100;SDS011;62462;52.530;21.682;2024-01-06T14:07:55;126.22;;;35.70;;
74100;SDS011;62462;52.530;21.682;2024-01-06T14:10:21;157.93;;;46.08;;
74100;SDS011;62462;52.530;21.682;2024-01-06T14:12:47;86.72;;;26.50;;
74100;SDS011;62462;52.530;21.682;2024-01-06T14:15:13;86.50;;;26.40;;